createdAt,value
2018-02-08T00:01:44.276Z,1.34
2018-02-08T00:04:11.781Z,1.29
2018-02-08T00:06:39.253Z,1.26
2018-02-08T00:09:06.696Z,1.39
2018-02-08T00:11:34.170Z,1.65
2018-02-08T00:14:01.641Z,1.46
2018-02-08T00:16:29.125Z,1.38
2018-02-08T00:18:56.595Z,1.57
2018-02-08T00:21:24.053Z,1.35
2018-02-08T00:23:51.554Z,1.31
2018-02-08T00:26:19.001Z,1.41
2018-02-08T00:28:46.469Z,1.56
2018-02-08T00:31:13.932Z,1.75
2018-02-08T00:33:41.382Z,1.58
2018-02-08T00:36:09.041Z,1.38
2018-02-08T00:38:36.584Z,1.47
2018-02-08T00:41:04.068Z,1.56
2018-02-08T00:43:31.537Z,1.60
2018-02-08T00:45:58.985Z,1.53
2018-02-08T00:48:26.456Z,1.36
2018-02-08T00:50:53.904Z,1.58
2018-02-08T00:53:21.348Z,1.58
2018-02-08T00:55:48.897Z,1.43
2018-02-08T00:58:16.345Z,1.25
2018-02-08T01:00:44.009Z,1.45
2018-02-08T01:03:11.457Z,1.54
2018-02-08T01:05:38.948Z,1.43
2018-02-08T01:08:06.412Z,1.38
2018-02-08T01:10:33.859Z,1.54
2018-02-08T01:13:01.503Z,1.51
2018-02-08T01:15:28.948Z,1.53
2018-02-08T01:17:56.416Z,1.55
2018-02-08T01:20:23.892Z,1.47
2018-02-08T01:22:51.333Z,1.08
2018-02-08T01:25:18.990Z,1.08
2018-02-08T01:27:46.437Z,1.27
2018-02-08T01:30:13.914Z,1.16
2018-02-08T01:32:41.516Z,1.25
2018-02-08T01:35:08.972Z,1.17
2018-02-08T01:37:36.581Z,1.10
2018-02-08T01:40:04.037Z,1.23
2018-02-08T01:42:31.486Z,1.47
2018-02-08T01:44:58.953Z,1.53
2018-02-08T01:47:26.632Z,1.25
2018-02-08T01:49:54.485Z,1.21
2018-02-08T01:52:21.940Z,1.56
2018-02-08T01:54:49.385Z,1.26
2018-02-08T01:57:16.857Z,1.17
2018-02-08T01:59:44.312Z,1.02
2018-02-08T02:02:11.965Z,1.47
2018-02-08T02:04:39.417Z,0.94
2018-02-08T02:07:06.881Z,1.10
2018-02-08T02:09:34.348Z,1.32
2018-02-08T02:12:01.859Z,1.09
2018-02-08T02:14:29.340Z,1.23
2018-02-08T02:16:56.804Z,1.15
2018-02-08T02:19:24.254Z,0.99
2018-02-08T02:21:51.784Z,0.86
2018-02-08T02:24:19.233Z,0.84
2018-02-08T02:26:46.938Z,0.92
2018-02-08T02:29:14.396Z,0.90
2018-02-08T02:31:41.942Z,0.76
2018-02-08T02:34:09.424Z,1.10
2018-02-08T02:36:36.920Z,1.09
2018-02-08T02:39:04.396Z,1.54
2018-02-08T02:41:31.841Z,1.63
2018-02-08T02:43:59.677Z,1.72
2018-02-08T02:46:27.173Z,1.46
2018-02-08T02:48:54.622Z,1.51
2018-02-08T02:51:22.222Z,1.63
2018-02-08T02:53:49.719Z,1.75
2018-02-08T02:56:17.161Z,1.54
2018-02-08T02:58:44.662Z,1.53
2018-02-08T03:01:12.113Z,1.47
2018-02-08T03:03:39.589Z,1.29
2018-02-08T03:06:07.065Z,1.31
2018-02-08T03:08:34.544Z,1.17
2018-02-08T03:11:02.005Z,1.52
2018-02-08T03:13:29.484Z,1.29
2018-02-08T03:15:57.104Z,1.47
2018-02-08T03:18:24.550Z,1.45
2018-02-08T03:20:52.006Z,1.23
2018-02-08T03:23:19.481Z,1.34
2018-02-08T03:25:46.929Z,1.11
2018-02-08T03:28:14.410Z,1.08
2018-02-08T03:30:43.389Z,1.11
2018-02-08T03:33:10.846Z,0.98
2018-02-08T03:35:38.314Z,1.04
2018-02-08T03:38:05.756Z,0.98
2018-02-08T03:40:33.240Z,1.18
2018-02-08T03:43:00.697Z,1.02
2018-02-08T03:45:28.161Z,1.06
2018-02-08T03:47:55.624Z,0.83
2018-02-08T03:50:23.098Z,0.67
2018-02-08T03:52:50.580Z,0.76
2018-02-08T03:55:18.035Z,0.54
2018-02-08T03:57:45.492Z,0.49
2018-02-08T04:00:12.972Z,0.36
2018-02-08T04:02:40.434Z,0.58
2018-02-08T04:05:08.167Z,0.51
2018-02-08T04:07:35.609Z,0.34
2018-02-08T04:10:03.061Z,-0.06
2018-02-08T04:12:30.542Z,-0.30
2018-02-08T04:14:57.993Z,-0.36
2018-02-08T04:17:25.752Z,-0.37
2018-02-08T04:19:53.200Z,-0.35
2018-02-08T04:22:20.657Z,-0.21
2018-02-08T04:24:48.126Z,-0.04
2018-02-08T04:27:15.608Z,0.11
2018-02-08T04:29:43.262Z,0.34
2018-02-08T04:32:10.712Z,0.27
2018-02-08T04:34:38.212Z,0.24
2018-02-08T04:37:05.678Z,0.27
2018-02-08T04:39:44.915Z,0.14
2018-02-08T04:42:24.197Z,0.38
2018-02-08T04:45:03.498Z,0.26
2018-02-08T04:50:31.858Z,0.13
2018-02-08T04:52:59.576Z,0.20
2018-02-08T04:55:27.045Z,0.12
2018-02-08T04:57:54.504Z,0.17
2018-02-08T05:00:22.009Z,0.08
2018-02-08T05:02:53.041Z,0.07
2018-02-08T05:05:20.541Z,0.10
2018-02-08T05:07:47.988Z,0.01
2018-02-08T05:10:15.441Z,-0.08
2018-02-08T05:12:42.916Z,-0.11
2018-02-08T05:15:10.401Z,-0.23
2018-02-08T05:17:38.137Z,-0.15
2018-02-08T05:20:05.593Z,-0.09
2018-02-08T05:22:33.046Z,-0.12
2018-02-08T05:25:00.513Z,-0.06
2018-02-08T05:27:27.961Z,-0.03
2018-02-08T05:29:55.435Z,-0.18
2018-02-08T05:32:22.881Z,-0.05
2018-02-08T05:34:50.324Z,-0.10
2018-02-08T05:37:17.805Z,-0.17
2018-02-08T05:39:45.265Z,-0.34
2018-02-08T05:42:12.750Z,-0.26
2018-02-08T05:44:40.206Z,-0.31
2018-02-08T05:47:07.653Z,-0.37
2018-02-08T05:49:35.141Z,-0.35
2018-02-08T05:52:02.590Z,-0.41
2018-02-08T05:54:30.200Z,-0.38
2018-02-08T05:56:57.681Z,-0.32
2018-02-08T05:59:25.134Z,-0.35
2018-02-08T06:01:52.812Z,-0.38
2018-02-08T06:04:20.275Z,-0.45
2018-02-08T06:06:47.761Z,-0.35
2018-02-08T06:09:15.209Z,-0.30
2018-02-08T06:11:42.661Z,-0.40
2018-02-08T06:14:10.132Z,-0.32
2018-02-08T06:16:37.584Z,-0.11
2018-02-08T06:19:05.063Z,-0.24
2018-02-08T06:21:32.517Z,-0.22
2018-02-08T06:23:59.970Z,-0.16
2018-02-08T06:26:27.440Z,-0.31
2018-02-08T06:28:54.935Z,-0.33
2018-02-08T06:31:22.452Z,-0.18
2018-02-08T06:33:49.900Z,-0.26
2018-02-08T06:36:17.380Z,-0.51
2018-02-08T06:38:44.854Z,-0.50
2018-02-08T06:41:12.319Z,-0.46
2018-02-08T06:43:40.133Z,-0.57
2018-02-08T06:46:07.609Z,-0.68
2018-02-08T06:48:35.084Z,-0.62
2018-02-08T06:51:02.556Z,-0.51
2018-02-08T06:53:30.012Z,-0.77
2018-02-08T06:55:58.049Z,-0.67
2018-02-08T06:58:25.876Z,-0.79
2018-02-08T07:00:53.673Z,-0.77
2018-02-08T07:03:21.225Z,-0.73
2018-02-08T07:05:50.324Z,-0.75
2018-02-08T07:08:19.700Z,-0.75
2018-02-08T07:10:49.798Z,-0.76
2018-02-08T07:13:18.856Z,-0.80
2018-02-08T07:15:47.579Z,-0.81
2018-02-08T07:18:15.080Z,-0.81
2018-02-08T07:20:42.552Z,-0.72
2018-02-08T07:23:10.001Z,-0.65
2018-02-08T07:25:37.487Z,-0.82
2018-02-08T07:28:04.933Z,-0.90
2018-02-08T07:30:32.428Z,-0.93
2018-02-08T07:32:59.894Z,-0.85
2018-02-08T07:35:27.342Z,-0.79
2018-02-08T07:37:54.883Z,-0.93
2018-02-08T07:40:22.337Z,-0.92
2018-02-08T07:42:49.793Z,-0.89
2018-02-08T07:45:17.278Z,-0.98
2018-02-08T07:47:44.728Z,-0.92
2018-02-08T07:50:12.425Z,-1.00
2018-02-08T07:52:39.885Z,-1.05
2018-02-08T07:55:07.337Z,-1.08
2018-02-08T07:57:34.804Z,-1.28
2018-02-08T08:00:02.253Z,-1.37
2018-02-08T08:02:30.061Z,-1.28
2018-02-08T08:04:57.513Z,-1.19
2018-02-08T08:07:24.980Z,-0.95
2018-02-08T08:09:52.453Z,-0.97
2018-02-08T08:12:19.925Z,-0.80
2018-02-08T08:14:47.637Z,-0.51
2018-02-08T08:17:15.141Z,-0.20
2018-02-08T08:19:42.610Z,-0.36
2018-02-08T08:22:10.093Z,-0.26
2018-02-08T08:24:37.549Z,-0.39
2018-02-08T08:27:05.024Z,-0.42
2018-02-08T08:29:32.483Z,-0.02
2018-02-08T08:31:59.933Z,-0.04
2018-02-08T08:34:27.409Z,-0.05
2018-02-08T08:36:54.864Z,-0.24
2018-02-08T08:39:22.565Z,0.00
2018-02-08T08:41:50.017Z,0.43
2018-02-08T08:44:17.526Z,0.29
2018-02-08T08:46:45.002Z,0.63
2018-02-08T08:49:12.457Z,0.54
2018-02-08T08:51:39.932Z,0.74
2018-02-08T08:54:07.464Z,0.44
2018-02-08T08:56:34.935Z,0.64
2018-02-08T08:59:02.401Z,0.30
2018-02-08T09:01:29.849Z,0.39
2018-02-08T09:03:57.576Z,0.24
2018-02-08T09:06:25.025Z,0.32
2018-02-08T09:08:52.475Z,0.31
2018-02-08T09:11:19.970Z,0.45
2018-02-08T09:13:47.884Z,0.42
2018-02-08T09:16:15.353Z,0.54
2018-02-08T09:18:42.825Z,0.55
2018-02-08T09:21:10.273Z,0.80
2018-02-08T09:23:37.760Z,0.77
2018-02-08T09:26:05.210Z,0.68
2018-02-08T09:28:32.830Z,0.82
2018-02-08T09:31:00.287Z,0.89
2018-02-08T09:33:27.738Z,1.01
2018-02-08T09:35:55.204Z,0.82
2018-02-08T09:38:22.651Z,0.90
2018-02-08T09:40:50.365Z,1.32
2018-02-08T09:43:17.830Z,1.23
2018-02-08T09:45:45.329Z,1.24
2018-02-08T09:48:12.793Z,1.26
2018-02-08T09:50:40.241Z,1.17
2018-02-08T09:53:07.750Z,1.41
2018-02-08T09:55:35.215Z,1.16
2018-02-08T09:58:02.682Z,1.30
2018-02-08T10:00:30.156Z,1.50
2018-02-08T10:02:57.601Z,1.63
2018-02-08T10:05:25.101Z,1.75
2018-02-08T10:07:52.549Z,1.67
2018-02-08T10:10:19.997Z,1.54
2018-02-08T10:12:47.504Z,1.77
2018-02-08T10:15:14.969Z,1.84
2018-02-08T10:17:42.600Z,1.75
2018-02-08T10:20:10.060Z,1.79
2018-02-08T10:22:37.876Z,1.84
2018-02-08T10:25:05.361Z,2.03
2018-02-08T10:27:32.804Z,1.89
2018-02-08T10:30:00.472Z,1.84
2018-02-08T10:32:28.108Z,2.09
2018-02-08T10:34:55.730Z,1.86
2018-02-08T10:37:23.211Z,1.65
2018-02-08T10:39:50.677Z,2.23
2018-02-08T10:42:18.476Z,1.81
2018-02-08T10:44:45.929Z,2.30
2018-02-08T10:47:13.392Z,1.89
2018-02-08T10:49:40.860Z,1.95
2018-02-08T10:52:08.305Z,1.81
2018-02-08T10:54:35.957Z,2.15
2018-02-08T10:57:03.414Z,2.01
2018-02-08T10:59:30.869Z,2.24
2018-02-08T11:01:58.336Z,2.05
2018-02-08T11:04:25.784Z,2.26
2018-02-08T11:06:53.272Z,2.62
2018-02-08T11:09:20.728Z,2.18
2018-02-08T11:11:48.199Z,2.02
2018-02-08T11:14:15.669Z,2.31
2018-02-08T11:16:43.130Z,2.76
2018-02-08T11:19:10.927Z,2.70
2018-02-08T11:21:38.372Z,2.71
2018-02-08T11:24:05.820Z,2.68
2018-02-08T11:26:33.300Z,2.80
2018-02-08T11:29:00.757Z,2.37
2018-02-08T11:31:28.231Z,2.50
2018-02-08T11:33:55.689Z,2.91
2018-02-08T11:36:23.133Z,2.58
2018-02-08T11:38:50.625Z,2.63
2018-02-08T11:41:18.097Z,2.61
2018-02-08T11:43:45.799Z,2.47
2018-02-08T11:46:13.244Z,2.94
2018-02-08T11:48:40.690Z,3.12
2018-02-08T11:51:08.165Z,3.09
2018-02-08T11:53:35.613Z,2.98
2018-02-08T11:56:03.286Z,3.24
2018-02-08T11:58:30.738Z,3.01
2018-02-08T12:00:58.184Z,2.86
2018-02-08T12:03:25.657Z,2.46
2018-02-08T12:05:53.107Z,2.81
2018-02-08T12:08:20.770Z,3.20
2018-02-08T12:10:48.292Z,3.25
2018-02-08T12:13:15.789Z,3.03
2018-02-08T12:15:43.256Z,3.44
2018-02-08T12:18:10.705Z,3.31
2018-02-08T12:20:38.409Z,3.44
2018-02-08T12:23:05.819Z,3.37
2018-02-08T12:25:33.281Z,3.48
2018-02-08T12:28:01.709Z,3.40
2018-02-08T12:30:29.164Z,3.71
2018-02-08T12:32:56.777Z,3.20
2018-02-08T12:35:24.243Z,3.05
2018-02-08T12:37:51.705Z,3.18
2018-02-08T12:40:19.194Z,3.27
2018-02-08T12:42:46.640Z,3.26
2018-02-08T12:45:14.237Z,3.59
2018-02-08T12:47:41.684Z,3.48
2018-02-08T12:50:09.136Z,3.66
2018-02-08T12:52:36.688Z,3.77
2018-02-08T12:55:04.137Z,3.69
2018-02-08T12:57:31.992Z,3.68
2018-02-08T12:59:59.488Z,3.48
2018-02-08T13:02:26.932Z,3.66
2018-02-08T13:04:54.428Z,3.40
2018-02-08T13:07:21.899Z,3.39
2018-02-08T13:09:49.537Z,3.81
2018-02-08T13:12:16.985Z,3.92
2018-02-08T13:14:44.437Z,3.80
2018-02-08T13:17:11.915Z,3.85
2018-02-08T13:19:39.367Z,3.35
2018-02-08T13:22:07.080Z,3.46
2018-02-08T13:24:34.531Z,3.56
2018-02-08T13:27:01.981Z,3.67
2018-02-08T13:29:29.453Z,3.58
2018-02-08T13:31:57.433Z,3.35
2018-02-08T13:34:24.910Z,3.68
2018-02-08T13:36:52.361Z,3.77
2018-02-08T13:39:25.465Z,3.69
2018-02-08T13:41:52.921Z,3.92
2018-02-08T13:44:20.450Z,4.27
2018-02-08T13:46:47.932Z,4.08
2018-02-08T13:49:31.266Z,3.69
2018-02-08T13:55:10.377Z,3.73
2018-02-08T13:57:38.818Z,4.11
2018-02-08T14:00:12.324Z,3.91
2018-02-08T14:02:39.789Z,3.90
2018-02-08T14:05:07.264Z,3.92
2018-02-08T14:07:34.974Z,4.06
2018-02-08T14:10:02.509Z,4.12
2018-02-08T14:12:29.970Z,3.84
2018-02-08T14:14:57.433Z,3.81
2018-02-08T14:17:24.877Z,3.97
2018-02-08T14:19:52.569Z,4.02
2018-02-08T14:22:20.072Z,4.39
2018-02-08T14:24:47.521Z,4.68
2018-02-08T14:27:14.998Z,4.59
2018-02-08T14:29:42.446Z,4.49
2018-02-08T14:32:10.579Z,4.55
2018-02-08T14:34:38.038Z,4.49
2018-02-08T14:37:05.543Z,4.37
2018-02-08T14:39:33.015Z,3.95
2018-02-08T14:42:00.478Z,4.17
2018-02-08T14:44:28.205Z,4.35
2018-02-08T14:46:55.655Z,4.20
2018-02-08T14:49:23.220Z,4.04
2018-02-08T14:51:50.693Z,4.14
2018-02-08T14:54:18.137Z,4.02
2018-02-08T14:56:45.961Z,4.20
2018-02-08T14:59:13.501Z,4.26
2018-02-08T15:01:40.988Z,4.09
2018-02-08T15:04:08.463Z,4.07
2018-02-08T15:06:35.909Z,4.16
2018-02-08T15:09:03.589Z,4.20
2018-02-08T15:11:33.242Z,4.16
2018-02-08T15:14:00.958Z,4.07
2018-02-08T15:16:28.425Z,4.22
2018-02-08T15:18:55.886Z,4.01
2018-02-08T15:21:23.500Z,3.97
2018-02-08T15:23:50.944Z,3.91
2018-02-08T15:26:18.394Z,3.76
2018-02-08T15:28:45.861Z,3.84
2018-02-08T15:31:13.353Z,3.82
2018-02-08T15:33:40.981Z,3.73
2018-02-08T15:36:08.430Z,3.87
2018-02-08T15:38:35.893Z,3.84
2018-02-08T15:41:03.366Z,4.21
2018-02-08T15:43:30.814Z,4.18
2018-02-08T15:45:58.677Z,4.12
2018-02-08T15:48:26.127Z,3.88
2018-02-08T15:50:53.605Z,3.76
2018-02-08T15:53:21.074Z,3.65
2018-02-08T15:55:48.517Z,3.61
2018-02-08T15:58:16.920Z,3.47
2018-02-08T16:00:44.373Z,3.47
2018-02-08T16:03:11.834Z,3.11
2018-02-08T16:05:39.322Z,3.55
2018-02-08T16:08:06.773Z,3.19
2018-02-08T16:10:34.469Z,2.98
2018-02-08T16:13:01.915Z,2.90
2018-02-08T16:15:29.368Z,2.83
2018-02-08T16:17:56.837Z,2.63
2018-02-08T16:20:24.310Z,2.35
2018-02-08T16:22:52.085Z,2.42
2018-02-08T16:25:19.531Z,2.31
2018-02-08T16:27:47.016Z,2.40
2018-02-08T16:30:14.552Z,2.24
2018-02-08T16:32:41.953Z,2.40
2018-02-08T16:35:09.531Z,2.17
2018-02-08T16:37:37.018Z,2.13
2018-02-08T16:40:04.473Z,2.09
2018-02-08T16:42:31.937Z,2.07
2018-02-08T16:44:59.410Z,2.01
2018-02-08T16:47:27.224Z,1.89
2018-02-08T16:49:54.669Z,1.89
2018-02-08T16:52:22.122Z,1.91
2018-02-08T16:54:49.592Z,1.86
2018-02-08T16:57:17.037Z,1.85
2018-02-08T16:59:44.516Z,1.81
2018-02-08T17:02:12.005Z,1.79
2018-02-08T17:04:39.453Z,1.61
2018-02-08T17:07:06.925Z,1.63
2018-02-08T17:09:34.368Z,1.62
2018-02-08T17:12:01.834Z,1.46
2018-02-08T17:14:29.332Z,1.65
2018-02-08T17:16:56.781Z,1.58
2018-02-08T17:19:24.226Z,1.51
2018-02-08T17:21:51.697Z,1.57
2018-02-08T17:24:19.570Z,1.58
2018-02-08T17:26:47.030Z,1.58
2018-02-08T17:29:14.801Z,1.49
2018-02-08T17:31:42.261Z,1.53
2018-02-08T17:34:09.744Z,1.48
2018-02-08T17:36:37.224Z,1.25
2018-02-08T17:39:04.693Z,0.98
2018-02-08T17:41:32.147Z,1.03
2018-02-08T17:43:59.677Z,0.96
2018-02-08T17:49:01.034Z,1.02
2018-02-08T17:51:28.532Z,0.86
2018-02-08T17:53:56.020Z,0.92
2018-02-08T17:56:23.701Z,0.79
2018-02-08T17:58:51.168Z,0.82
2018-02-08T18:01:18.646Z,0.85
2018-02-08T18:03:46.424Z,0.70
2018-02-08T18:06:13.916Z,0.55
2018-02-08T18:08:41.381Z,0.51
2018-02-08T18:11:08.872Z,0.53
2018-02-08T18:13:36.357Z,0.64
2018-02-08T18:16:04.157Z,0.61
2018-02-08T18:18:31.648Z,0.55
2018-02-08T18:20:59.101Z,0.49
2018-02-08T18:23:26.586Z,0.40
2018-02-08T18:25:54.039Z,0.33
2018-02-08T18:28:21.524Z,0.16
2018-02-08T18:30:49.022Z,0.17
2018-02-08T18:33:16.475Z,0.16
2018-02-08T18:35:43.949Z,0.21
2018-02-08T18:38:11.401Z,0.43
2018-02-08T18:40:39.287Z,0.30
2018-02-08T18:43:06.741Z,0.48
2018-02-08T18:45:34.196Z,0.55
2018-02-08T18:48:01.688Z,0.18
2018-02-08T18:50:29.137Z,0.29
2018-02-08T18:52:56.718Z,0.20
2018-02-08T18:55:24.175Z,0.14
2018-02-08T18:57:51.623Z,0.15
2018-02-08T19:00:19.120Z,-0.03
2018-02-08T19:02:46.580Z,-0.11
2018-02-08T19:05:14.090Z,-0.26
2018-02-08T19:07:41.541Z,-0.17
2018-02-08T19:10:09.090Z,-0.14
2018-02-08T19:12:36.628Z,-0.08
2018-02-08T19:15:04.118Z,0.18
2018-02-08T19:17:32.025Z,-0.01
2018-02-08T19:19:59.503Z,0.13
2018-02-08T19:22:26.955Z,-0.13
2018-02-08T19:24:54.424Z,-0.04
2018-02-08T19:27:21.891Z,-0.03
2018-02-08T19:29:49.598Z,-0.51
2018-02-08T19:32:17.069Z,-0.49
2018-02-08T19:34:44.525Z,-0.50
2018-02-08T19:37:12.205Z,-0.30
2018-02-08T19:39:39.661Z,-0.31
2018-02-08T19:42:07.555Z,-0.32
2018-02-08T19:44:35.075Z,-0.37
2018-02-08T19:47:02.549Z,-0.64
2018-02-08T19:49:30.160Z,-0.73
2018-02-08T19:51:57.614Z,-0.74
2018-02-08T19:54:25.407Z,-0.90
2018-02-08T19:56:52.917Z,-0.88
2018-02-08T19:59:20.387Z,-0.75
2018-02-08T20:01:47.943Z,-0.78
2018-02-08T20:04:15.429Z,-0.89
2018-02-08T20:06:44.348Z,-0.46
2018-02-08T20:09:12.793Z,-0.72
2018-02-08T20:11:40.287Z,-0.68
2018-02-08T20:14:13.705Z,-0.45
2018-02-08T20:16:41.233Z,-0.51
2018-02-08T20:19:09.032Z,-0.49
2018-02-08T20:21:36.533Z,-0.63
2018-02-08T20:24:04.524Z,-0.71
2018-02-08T20:26:32.210Z,-0.88
2018-02-08T20:28:59.874Z,-1.20
2018-02-08T20:31:28.979Z,-1.27
2018-02-08T20:33:56.474Z,-1.31
2018-02-08T20:36:23.999Z,-1.32
2018-02-08T20:38:51.507Z,-1.19
2018-02-08T20:41:19.005Z,-1.37
2018-02-08T20:43:46.482Z,-1.60
2018-02-08T20:46:13.972Z,-1.54
2018-02-08T20:48:41.847Z,-1.20
2018-02-08T20:51:09.319Z,-1.11
2018-02-08T20:53:37.376Z,-1.14
2018-02-08T20:56:05.318Z,-1.39
2018-02-08T20:58:32.829Z,-1.63
2018-02-08T21:01:00.592Z,-1.55
2018-02-08T21:03:28.185Z,-1.35
2018-02-08T21:05:55.749Z,-1.53
2018-02-08T21:08:23.349Z,-1.01
2018-02-08T21:10:50.819Z,-1.30
2018-02-08T21:13:18.644Z,-1.50
2018-02-08T21:15:46.092Z,-1.58
2018-02-08T21:18:13.610Z,-1.75
2018-02-08T21:20:41.105Z,-1.85
2018-02-08T21:23:08.562Z,-1.90
2018-02-08T21:25:36.243Z,-1.81
2018-02-08T21:28:03.836Z,-1.84
2018-02-08T21:30:31.341Z,-1.81
2018-02-08T21:32:58.814Z,-1.78
2018-02-08T21:35:26.309Z,-1.84
2018-02-08T21:37:53.798Z,-1.98
2018-02-08T21:40:21.245Z,-1.91
2018-02-08T21:42:48.693Z,-1.82
2018-02-08T21:45:16.167Z,-1.90
2018-02-08T21:47:43.618Z,-2.12
2018-02-08T21:50:11.296Z,-2.24
2018-02-08T21:52:38.803Z,-2.23
2018-02-08T21:55:06.285Z,-2.33
2018-02-08T21:57:34.206Z,-2.24
2018-02-08T22:00:01.982Z,-2.41
2018-02-08T22:02:29.606Z,-2.54
2018-02-08T22:04:57.088Z,-2.56
2018-02-08T22:07:24.608Z,-2.47
2018-02-08T22:09:52.410Z,-2.56
2018-02-08T22:12:19.913Z,-2.69
2018-02-08T22:14:47.443Z,-2.56
2018-02-08T22:17:14.913Z,-2.51
2018-02-08T22:19:42.398Z,-2.66
2018-02-08T22:22:09.889Z,-2.67
2018-02-08T22:24:37.383Z,-2.86
2018-02-08T22:27:05.094Z,-2.88
2018-02-08T22:29:32.540Z,-2.81
2018-02-08T22:31:59.989Z,-2.83
2018-02-08T22:34:27.477Z,-2.90
2018-02-08T22:36:54.952Z,-3.02
2018-02-08T22:39:22.689Z,-2.90
2018-02-08T22:41:50.202Z,-2.96
2018-02-08T22:44:17.642Z,-3.09
2018-02-08T22:46:45.113Z,-3.06
2018-02-08T22:49:12.580Z,-2.95
2018-02-08T22:51:40.080Z,-2.86
2018-02-08T22:54:07.529Z,-2.97
2018-02-08T22:56:35.840Z,-2.90
2018-02-08T22:59:03.321Z,-2.92
2018-02-08T23:01:30.775Z,-2.91
2018-02-08T23:03:58.491Z,-2.96
2018-02-08T23:06:25.961Z,-2.95
2018-02-08T23:08:53.413Z,-2.90
2018-02-08T23:11:20.899Z,-2.82
2018-02-08T23:13:48.361Z,-2.73
2018-02-08T23:16:15.976Z,-2.80
2018-02-08T23:18:43.433Z,-2.82
2018-02-08T23:21:10.889Z,-2.65
2018-02-08T23:23:38.365Z,-2.79
2018-02-08T23:26:05.819Z,-2.59
2018-02-08T23:28:33.314Z,-2.46
2018-02-08T23:31:00.777Z,-2.55
2018-02-08T23:33:28.247Z,-2.51
2018-02-08T23:35:55.764Z,-2.59
2018-02-08T23:38:23.229Z,-2.57
2018-02-08T23:40:50.941Z,-2.55
2018-02-08T23:43:18.394Z,-2.52
2018-02-08T23:45:45.852Z,-2.58
2018-02-08T23:48:13.320Z,-2.64
2018-02-08T23:50:40.777Z,-2.40
2018-02-08T23:53:08.445Z,-2.48
2018-02-08T23:55:35.896Z,-2.44
2018-02-08T23:58:03.363Z,-2.42
